createdAt,value
2022-09-28T00:00:55.405Z,0.00
2022-09-28T00:01:55.499Z,0.00
2022-09-28T00:02:55.415Z,0.00
2022-09-28T00:03:55.386Z,0.00
2022-09-28T00:04:55.398Z,0.00
2022-09-28T00:05:55.366Z,0.00
2022-09-28T00:06:55.387Z,0.00
2022-09-28T00:07:55.353Z,0.00
2022-09-28T00:08:55.328Z,0.00
2022-09-28T00:09:55.313Z,0.00
2022-09-28T00:10:55.295Z,0.00
2022-09-28T00:11:55.341Z,0.00
2022-09-28T00:12:55.276Z,0.00
2022-09-28T00:13:55.267Z,0.00
2022-09-28T00:14:55.251Z,0.00
2022-09-28T00:15:55.287Z,0.00
2022-09-28T00:16:55.271Z,0.00
2022-09-28T00:17:55.228Z,0.00
2022-09-28T00:18:55.209Z,0.00
2022-09-28T00:19:55.200Z,0.00
2022-09-28T00:20:55.188Z,0.00
2022-09-28T00:21:55.220Z,0.00
2022-09-28T00:22:55.169Z,0.00
2022-09-28T00:23:55.159Z,0.00
2022-09-28T00:24:55.144Z,0.00
2022-09-28T00:25:55.133Z,0.00
2022-09-28T00:26:55.163Z,0.00
2022-09-28T00:27:55.111Z,0.00
2022-09-28T00:28:55.092Z,0.00
2022-09-28T00:29:55.085Z,0.00
2022-09-28T00:30:55.080Z,0.00
2022-09-28T00:31:55.135Z,0.00
2022-09-28T00:32:55.043Z,0.00
2022-09-28T00:33:55.031Z,0.00
2022-09-28T00:34:55.018Z,0.00
2022-09-28T00:35:55.016Z,0.00
2022-09-28T00:36:55.043Z,0.00
2022-09-28T00:37:55.010Z,0.00
2022-09-28T00:38:54.982Z,0.00
2022-09-28T00:39:54.977Z,0.00
2022-09-28T00:40:55.001Z,0.00
2022-09-28T00:41:55.023Z,0.00
2022-09-28T00:42:54.947Z,0.00
2022-09-28T00:43:54.933Z,0.00
2022-09-28T00:44:54.910Z,0.00
2022-09-28T00:45:54.981Z,0.00
2022-09-28T00:46:54.943Z,0.00
2022-09-28T00:47:54.888Z,0.00
2022-09-28T00:48:54.866Z,0.00
2022-09-28T00:49:54.861Z,0.00
2022-09-28T00:50:54.873Z,0.00
2022-09-28T00:51:54.892Z,0.00
2022-09-28T00:52:54.827Z,0.00
2022-09-28T00:53:54.817Z,0.00
2022-09-28T00:54:54.803Z,0.00
2022-09-28T00:55:54.797Z,0.00
2022-09-28T00:56:54.815Z,0.00
2022-09-28T00:57:54.768Z,0.00
2022-09-28T00:58:54.753Z,0.00
2022-09-28T00:59:54.742Z,0.00
2022-09-28T01:00:54.748Z,0.00
2022-09-28T01:01:54.794Z,0.00
2022-09-28T01:02:54.713Z,0.00
2022-09-28T01:03:54.695Z,0.00
2022-09-28T01:04:54.683Z,0.00
2022-09-28T01:05:54.675Z,0.00
2022-09-28T01:06:54.698Z,0.00
2022-09-28T01:07:54.644Z,0.00
2022-09-28T01:08:54.631Z,0.00
2022-09-28T01:09:54.640Z,0.00
2022-09-28T01:10:54.615Z,0.00
2022-09-28T01:11:54.655Z,0.00
2022-09-28T01:12:54.598Z,0.00
2022-09-28T01:13:54.589Z,0.00
2022-09-28T01:14:54.576Z,0.00
2022-09-28T01:15:54.702Z,0.00
2022-09-28T01:16:54.604Z,0.00
2022-09-28T01:17:54.541Z,0.00
2022-09-28T01:18:54.518Z,0.00
2022-09-28T01:19:54.516Z,0.00
2022-09-28T01:20:54.513Z,0.00
2022-09-28T01:21:54.538Z,0.00
2022-09-28T01:22:54.488Z,0.00
2022-09-28T01:23:54.478Z,0.00
2022-09-28T01:24:54.463Z,0.00
2022-09-28T01:25:54.451Z,0.00
2022-09-28T01:26:54.479Z,0.00
2022-09-28T01:27:54.431Z,0.00
2022-09-28T01:28:54.413Z,0.00
2022-09-28T01:29:54.414Z,0.00
2022-09-28T01:30:54.398Z,0.00
2022-09-28T01:31:54.465Z,0.00
2022-09-28T01:32:54.381Z,0.00
2022-09-28T01:33:54.364Z,0.00
2022-09-28T01:34:54.336Z,0.00
2022-09-28T01:35:54.342Z,0.00
2022-09-28T01:36:54.398Z,0.00
2022-09-28T01:37:54.317Z,0.00
2022-09-28T01:38:54.293Z,0.00
2022-09-28T01:39:54.293Z,0.00
2022-09-28T01:40:54.312Z,0.00
2022-09-28T01:41:54.307Z,0.00
2022-09-28T01:42:54.258Z,0.00
2022-09-28T01:43:54.250Z,0.00
2022-09-28T01:44:54.243Z,0.00
2022-09-28T01:45:54.296Z,0.00
2022-09-28T01:46:54.254Z,0.00
2022-09-28T01:47:54.199Z,0.00
2022-09-28T01:48:54.196Z,0.00
2022-09-28T01:49:54.185Z,0.00
2022-09-28T01:50:54.168Z,0.00
2022-09-28T01:51:54.198Z,0.00
2022-09-28T01:52:54.148Z,0.00
2022-09-28T01:53:54.158Z,0.00
2022-09-28T01:54:54.123Z,0.00
2022-09-28T01:55:54.123Z,0.00
2022-09-28T01:56:54.150Z,0.00
2022-09-28T01:57:54.093Z,0.00
2022-09-28T01:58:54.086Z,0.00
2022-09-28T01:59:54.073Z,0.00
2022-09-28T02:00:54.097Z,0.00
2022-09-28T02:01:54.219Z,0.00
2022-09-28T02:02:54.041Z,0.00
2022-09-28T02:03:54.022Z,0.00
2022-09-28T02:04:54.013Z,0.00
2022-09-28T02:05:54.006Z,0.00
2022-09-28T02:06:54.025Z,0.00
2022-09-28T02:07:53.993Z,0.00
2022-09-28T02:08:53.964Z,0.00
2022-09-28T02:09:53.966Z,0.00
2022-09-28T02:10:53.945Z,0.00
2022-09-28T02:11:53.983Z,0.00
2022-09-28T02:12:53.911Z,0.00
2022-09-28T02:13:53.908Z,0.00
2022-09-28T02:14:53.889Z,0.00
2022-09-28T02:15:53.966Z,0.00
2022-09-28T02:16:53.917Z,0.00
2022-09-28T02:17:53.868Z,0.00
2022-09-28T02:18:53.849Z,0.00
2022-09-28T02:19:53.854Z,0.00
2022-09-28T02:20:53.831Z,0.00
2022-09-28T02:21:53.868Z,0.00
2022-09-28T02:22:53.840Z,0.00
2022-09-28T02:23:53.803Z,0.00
2022-09-28T02:24:53.791Z,0.00
2022-09-28T02:25:53.782Z,0.00
2022-09-28T02:26:53.803Z,0.00
2022-09-28T02:27:53.746Z,0.00
2022-09-28T02:28:53.739Z,0.00
2022-09-28T02:29:53.721Z,0.00
2022-09-28T02:30:53.720Z,0.00
2022-09-28T02:31:53.822Z,0.00
2022-09-28T02:32:53.695Z,0.00
2022-09-28T02:33:53.694Z,0.00
2022-09-28T02:34:53.668Z,0.00
2022-09-28T02:35:53.669Z,0.00
2022-09-28T02:36:53.690Z,0.00
2022-09-28T02:37:53.645Z,0.00
2022-09-28T02:38:53.630Z,0.00
2022-09-28T02:39:53.624Z,0.00
2022-09-28T02:40:53.608Z,0.00
2022-09-28T02:41:53.640Z,0.00
2022-09-28T02:42:53.586Z,0.00
2022-09-28T02:43:53.576Z,0.00
2022-09-28T02:44:53.556Z,0.00
2022-09-28T02:45:53.596Z,0.00
2022-09-28T02:46:53.577Z,0.00
2022-09-28T02:47:53.521Z,0.00
2022-09-28T02:49:10.453Z,0.00
2022-09-28T02:49:54.491Z,0.00
2022-09-28T02:50:53.504Z,0.00
2022-09-28T02:51:53.528Z,0.00
2022-09-28T02:52:53.465Z,0.00
2022-09-28T02:53:53.458Z,0.00
2022-09-28T02:54:53.459Z,0.00
2022-09-28T02:55:53.436Z,0.00
2022-09-28T02:56:53.534Z,0.00
2022-09-28T02:57:53.461Z,0.00
2022-09-28T02:58:53.408Z,0.00
2022-09-28T02:59:53.388Z,0.00
2022-09-28T03:00:53.439Z,0.00
2022-09-28T03:01:53.445Z,0.00
2022-09-28T03:02:53.407Z,0.00
2022-09-28T03:03:53.348Z,0.00
2022-09-28T03:04:53.342Z,0.00
2022-09-28T03:05:53.329Z,0.00
2022-09-28T03:06:53.311Z,0.00
2022-09-28T03:07:53.343Z,0.00
2022-09-28T03:08:53.295Z,0.00
2022-09-28T03:09:53.278Z,0.00
2022-09-28T03:10:53.273Z,0.00
2022-09-28T03:11:53.258Z,0.00
2022-09-28T03:12:53.295Z,0.00
2022-09-28T03:13:53.245Z,0.00
2022-09-28T03:14:53.228Z,0.00
2022-09-28T03:15:53.212Z,0.00
2022-09-28T03:16:53.208Z,0.00
2022-09-28T03:17:53.243Z,0.00
2022-09-28T03:18:53.178Z,0.00
2022-09-28T03:19:53.167Z,0.00
2022-09-28T03:20:53.154Z,0.00
2022-09-28T03:21:53.145Z,0.00
2022-09-28T03:23:12.681Z,0.00
2022-09-28T03:23:54.113Z,0.00
2022-09-28T03:24:53.123Z,0.00
2022-09-28T03:25:53.105Z,0.00
2022-09-28T03:26:53.094Z,0.00
2022-09-28T03:27:53.106Z,0.00
2022-09-28T03:28:53.072Z,0.00
2022-09-28T03:29:53.062Z,0.00
2022-09-28T03:30:53.056Z,0.00
2022-09-28T03:31:53.078Z,0.00
2022-09-28T03:32:53.074Z,0.00
2022-09-28T03:33:53.018Z,0.00
2022-09-28T03:34:52.991Z,0.00
2022-09-28T03:35:52.997Z,0.00
2022-09-28T03:36:52.974Z,0.00
2022-09-28T03:37:53.017Z,0.00
2022-09-28T03:38:52.953Z,0.00
2022-09-28T03:39:52.955Z,0.00
2022-09-28T03:40:53.005Z,0.00
2022-09-28T03:41:52.924Z,0.00
2022-09-28T03:42:52.956Z,0.00
2022-09-28T03:43:52.895Z,0.00
2022-09-28T03:44:52.891Z,0.00
2022-09-28T03:45:52.923Z,0.00
2022-09-28T03:46:52.905Z,0.00
2022-09-28T03:47:52.888Z,0.00
2022-09-28T03:48:52.843Z,0.00
2022-09-28T03:49:52.837Z,0.00
2022-09-28T03:50:52.839Z,0.00
2022-09-28T03:51:52.800Z,0.00
2022-09-28T03:52:52.831Z,0.00
2022-09-28T03:53:52.778Z,0.00
2022-09-28T03:54:52.770Z,0.00
2022-09-28T03:55:52.769Z,0.00
2022-09-28T03:56:52.757Z,0.00
2022-09-28T03:57:52.775Z,0.00
2022-09-28T03:58:52.735Z,0.00
2022-09-28T03:59:52.727Z,0.00
2022-09-28T04:00:52.747Z,0.00
2022-09-28T04:01:52.827Z,0.00
2022-09-28T04:02:52.734Z,0.00
2022-09-28T04:03:52.679Z,0.00
2022-09-28T04:04:52.675Z,0.00
2022-09-28T04:05:52.658Z,0.00
2022-09-28T04:06:52.638Z,0.00
2022-09-28T04:07:52.662Z,0.00
2022-09-28T04:08:52.618Z,0.00
2022-09-28T04:09:52.602Z,0.00
2022-09-28T04:10:52.596Z,0.00
2022-09-28T04:12:03.215Z,0.00
2022-09-28T04:12:53.626Z,0.00
2022-09-28T04:13:52.560Z,0.00
2022-09-28T04:14:52.549Z,0.00
2022-09-28T04:15:52.546Z,0.00
2022-09-28T04:16:52.590Z,0.00
2022-09-28T04:17:52.561Z,0.00
2022-09-28T04:18:52.513Z,0.00
2022-09-28T04:19:52.496Z,0.00
2022-09-28T04:20:52.487Z,0.00
2022-09-28T04:21:52.480Z,0.00
2022-09-28T04:22:52.538Z,0.00
2022-09-28T04:23:52.454Z,0.00
2022-09-28T04:24:52.440Z,4.00
2022-09-28T04:25:52.425Z,4.00
2022-09-28T04:26:52.413Z,0.00
2022-09-28T04:27:52.442Z,4.00
2022-09-28T04:28:52.395Z,4.00
2022-09-28T04:29:52.390Z,4.00
2022-09-28T04:30:52.383Z,8.00
2022-09-28T04:31:52.423Z,8.00
2022-09-28T04:32:52.436Z,8.00
2022-09-28T04:33:52.346Z,12.00
2022-09-28T04:34:52.359Z,12.00
2022-09-28T04:35:52.318Z,16.00
2022-09-28T04:36:52.308Z,20.00
2022-09-28T04:37:52.326Z,28.00
2022-09-28T04:38:53.610Z,32.00
2022-09-28T04:39:52.293Z,36.00
2022-09-28T04:40:52.311Z,40.00
2022-09-28T04:41:52.280Z,52.00
2022-09-28T04:42:52.310Z,60.00
2022-09-28T04:43:52.241Z,68.00
2022-09-28T04:44:52.232Z,80.00
2022-09-28T04:45:52.235Z,96.00
2022-09-28T04:46:52.206Z,108.00
2022-09-28T04:47:52.224Z,128.00
2022-09-28T04:48:52.178Z,144.00
2022-09-28T04:49:52.154Z,164.00
2022-09-28T04:50:52.171Z,188.00
2022-09-28T04:51:52.152Z,212.00
2022-09-28T04:52:52.187Z,240.00
2022-09-28T04:53:52.124Z,268.00
2022-09-28T04:54:52.143Z,300.00
2022-09-28T04:55:52.094Z,336.00
2022-09-28T04:56:52.159Z,368.00
2022-09-28T04:57:52.117Z,408.00
2022-09-28T04:58:52.988Z,452.00
2022-09-28T04:59:52.034Z,496.00
2022-09-28T05:00:52.119Z,540.00
2022-09-28T05:01:52.083Z,592.00
2022-09-28T05:02:52.067Z,640.00
2022-09-28T05:03:51.999Z,696.00
2022-09-28T05:04:52.002Z,748.00
2022-09-28T05:05:51.995Z,800.00
2022-09-28T05:06:51.990Z,856.00
2022-09-28T05:07:52.011Z,920.00
2022-09-28T05:08:51.959Z,996.00
2022-09-28T05:09:51.937Z,1100.00
2022-09-28T05:10:51.946Z,1204.00
2022-09-28T05:11:51.918Z,1296.00
2022-09-28T05:12:51.952Z,1332.00
2022-09-28T05:13:51.896Z,1324.00
2022-09-28T05:14:51.897Z,1316.00
2022-09-28T05:15:56.169Z,1324.00
2022-09-28T05:16:52.928Z,1324.00
2022-09-28T05:17:51.906Z,1320.00
2022-09-28T05:18:51.845Z,1312.00
2022-09-28T05:19:51.816Z,1304.00
2022-09-28T05:20:51.805Z,1312.00
2022-09-28T05:21:51.801Z,1340.00
2022-09-28T05:22:51.835Z,1392.00
2022-09-28T05:23:51.772Z,1456.00
2022-09-28T05:24:51.762Z,1512.00
2022-09-28T05:25:51.769Z,1564.00
2022-09-28T05:26:51.752Z,1616.00
2022-09-28T05:27:51.775Z,1664.00
2022-09-28T05:28:51.720Z,1716.00
2022-09-28T05:29:51.700Z,1764.00
2022-09-28T05:30:51.710Z,1808.00
2022-09-28T05:31:51.747Z,1844.00
2022-09-28T05:32:51.736Z,1872.00
2022-09-28T05:33:51.678Z,1908.00
2022-09-28T05:34:51.684Z,1940.00
2022-09-28T05:35:55.160Z,1976.00
2022-09-28T05:36:52.639Z,2028.00
2022-09-28T05:37:51.674Z,2108.00
2022-09-28T05:38:51.623Z,2224.00
2022-09-28T05:39:51.618Z,2348.00
2022-09-28T05:40:51.635Z,2460.00
2022-09-28T05:41:51.600Z,2544.00
2022-09-28T05:42:51.606Z,2560.00
2022-09-28T05:43:51.551Z,2544.00
2022-09-28T05:44:51.556Z,2524.00
2022-09-28T05:45:55.381Z,2564.00
2022-09-28T05:46:51.538Z,2728.00
2022-09-28T05:47:51.574Z,3016.00
2022-09-28T05:48:51.524Z,3388.00
2022-09-28T05:49:51.495Z,3792.00
2022-09-28T05:50:51.469Z,4176.00
2022-09-28T05:51:51.466Z,4504.00
2022-09-28T05:52:51.503Z,4792.00
2022-09-28T05:53:51.449Z,5028.00
2022-09-28T05:54:51.464Z,5280.00
2022-09-28T05:55:51.440Z,5632.00
2022-09-28T05:56:51.415Z,6012.00
2022-09-28T05:57:51.446Z,6336.00
2022-09-28T05:58:51.379Z,6584.00
2022-09-28T05:59:51.353Z,6840.00
2022-09-28T06:00:51.399Z,7168.00
2022-09-28T06:01:51.364Z,7496.00
2022-09-28T06:02:51.421Z,7748.00
2022-09-28T06:03:51.336Z,7876.00
2022-09-28T06:04:51.306Z,7984.00
2022-09-28T06:05:51.284Z,8064.00
2022-09-28T06:06:51.298Z,8192.00
2022-09-28T06:07:51.294Z,8356.00
2022-09-28T06:08:51.342Z,8500.00
2022-09-28T06:09:51.268Z,8460.00
2022-09-28T06:10:51.248Z,8340.00
2022-09-28T06:11:51.223Z,8112.00
2022-09-28T06:12:51.229Z,7848.00
2022-09-28T06:13:51.264Z,7636.00
2022-09-28T06:14:51.221Z,7520.00
2022-09-28T06:15:51.186Z,7440.00
2022-09-28T06:16:51.219Z,7420.00
2022-09-28T06:17:51.176Z,7448.00
2022-09-28T06:18:51.214Z,7480.00
2022-09-28T06:19:51.147Z,7484.00
2022-09-28T06:20:51.262Z,7472.00
2022-09-28T06:21:51.137Z,7432.00
2022-09-28T06:22:51.109Z,7404.00
2022-09-28T06:23:51.153Z,7420.00
2022-09-28T06:24:51.114Z,7424.00
2022-09-28T06:25:51.102Z,7408.00
2022-09-28T06:26:51.073Z,7372.00
2022-09-28T06:27:51.045Z,7292.00
2022-09-28T06:28:51.081Z,7180.00
2022-09-28T06:29:51.020Z,7148.00
2022-09-28T06:30:51.049Z,7184.00
2022-09-28T06:31:51.000Z,7284.00
2022-09-28T06:32:51.022Z,7380.00
2022-09-28T06:33:51.057Z,7396.00
2022-09-28T06:34:56.026Z,7516.00
2022-09-28T06:35:51.977Z,7684.00
2022-09-28T06:36:50.961Z,7948.00
2022-09-28T06:37:50.960Z,8248.00
2022-09-28T06:38:50.994Z,8628.00
2022-09-28T06:39:50.926Z,9088.00
2022-09-28T06:40:51.004Z,9300.00
2022-09-28T06:41:50.885Z,9756.00
2022-09-28T06:42:50.922Z,10108.00
2022-09-28T06:43:50.927Z,10524.00
2022-09-28T06:44:50.875Z,10992.00
2022-09-28T06:45:50.908Z,11348.00
2022-09-28T06:46:50.853Z,11932.00
2022-09-28T06:47:50.839Z,12164.00
2022-09-28T06:48:50.869Z,12308.00
2022-09-28T06:49:50.810Z,12624.00
2022-09-28T06:50:50.816Z,12848.00
2022-09-28T06:51:50.799Z,13040.00
2022-09-28T06:52:50.773Z,13312.00
2022-09-28T06:53:50.812Z,13616.00
2022-09-28T06:54:50.769Z,13804.00
2022-09-28T06:55:50.742Z,13928.00
2022-09-28T06:56:50.727Z,14088.00
2022-09-28T06:57:50.738Z,14308.00
2022-09-28T06:58:50.766Z,14532.00
2022-09-28T06:59:50.689Z,14724.00
2022-09-28T07:00:50.699Z,14872.00
2022-09-28T07:01:50.709Z,15052.00
2022-09-28T07:02:50.665Z,15300.00
2022-09-28T07:03:55.421Z,15540.00
2022-09-28T07:04:51.641Z,15688.00
2022-09-28T07:05:50.642Z,15984.00
2022-09-28T07:06:50.619Z,16196.00
2022-09-28T07:07:50.612Z,16200.00
2022-09-28T07:09:02.769Z,16216.00
2022-09-28T07:09:55.264Z,16424.00
2022-09-28T07:10:50.566Z,16464.00
2022-09-28T07:11:50.576Z,16496.00
2022-09-28T07:12:50.551Z,16444.00
2022-09-28T07:13:51.570Z,17184.00
2022-09-28T07:14:50.813Z,16876.00
2022-09-28T07:15:50.523Z,16928.00
2022-09-28T07:17:11.535Z,17504.00
2022-09-28T07:18:01.599Z,17184.00
2022-09-28T07:18:51.535Z,16568.00
2022-09-28T07:19:50.478Z,16380.00
2022-09-28T07:20:54.412Z,16384.00
2022-09-28T07:22:00.802Z,16064.00
2022-09-28T07:22:51.456Z,16072.00
2022-09-28T07:23:53.722Z,16236.00
2022-09-28T07:24:50.432Z,16008.00
2022-09-28T07:25:50.420Z,15856.00
2022-09-28T07:26:50.561Z,15896.00
2022-09-28T07:27:50.385Z,15868.00
2022-09-28T07:28:50.409Z,15968.00
2022-09-28T07:29:50.340Z,15976.00
2022-09-28T07:30:50.423Z,16096.00
2022-09-28T07:31:50.322Z,16244.00
2022-09-28T07:32:50.328Z,16488.00
2022-09-28T07:33:50.370Z,16796.00
2022-09-28T07:34:51.191Z,17144.00
2022-09-28T07:35:50.291Z,17696.00
2022-09-28T07:36:50.288Z,17984.00
2022-09-28T07:37:50.260Z,18304.00
2022-09-28T07:38:50.304Z,18496.00
2022-09-28T07:39:50.260Z,18752.00
2022-09-28T07:40:50.330Z,18880.00
2022-09-28T07:41:50.233Z,19072.00
2022-09-28T07:42:50.198Z,19552.00
2022-09-28T07:43:50.246Z,20416.00
2022-09-28T07:44:50.186Z,20704.00
2022-09-28T07:45:50.260Z,22208.00
2022-09-28T07:46:50.173Z,20704.00
2022-09-28T07:47:50.177Z,20256.00
2022-09-28T07:48:50.205Z,20064.00
2022-09-28T07:49:50.154Z,19584.00
2022-09-28T07:50:50.125Z,18688.00
2022-09-28T07:51:50.098Z,16868.00
2022-09-28T07:52:50.098Z,15372.00
2022-09-28T07:53:50.142Z,14468.00
2022-09-28T07:54:50.070Z,14636.00
2022-09-28T07:55:50.071Z,15604.00
2022-09-28T07:56:50.061Z,16820.00
2022-09-28T07:57:50.053Z,17856.00
2022-09-28T07:58:50.063Z,18208.00
2022-09-28T07:59:50.033Z,18304.00
2022-09-28T08:00:50.038Z,18208.00
2022-09-28T08:01:49.970Z,18144.00
2022-09-28T08:02:49.967Z,18016.00
2022-09-28T08:03:50.031Z,17760.00
2022-09-28T08:04:49.962Z,17376.00
2022-09-28T08:05:49.947Z,16664.00
2022-09-28T08:06:49.948Z,15964.00
2022-09-28T08:07:49.924Z,15196.00
2022-09-28T08:08:49.996Z,14740.00
2022-09-28T08:09:49.918Z,14760.00
2022-09-28T08:10:49.927Z,15100.00
2022-09-28T08:11:49.879Z,15392.00
2022-09-28T08:12:49.860Z,15384.00
2022-09-28T08:13:49.917Z,14916.00
2022-09-28T08:14:49.852Z,14000.00
2022-09-28T08:15:49.855Z,12924.00
2022-09-28T08:16:52.068Z,12200.00
2022-09-28T08:17:49.825Z,12124.00
2022-09-28T08:18:49.853Z,12684.00
2022-09-28T08:19:49.792Z,13608.00
2022-09-28T08:20:51.659Z,14556.00
2022-09-28T08:21:49.764Z,15260.00
2022-09-28T08:22:49.763Z,15520.00
2022-09-28T08:23:49.812Z,15348.00
2022-09-28T08:24:49.744Z,15008.00
2022-09-28T08:25:49.719Z,14880.00
2022-09-28T08:26:49.695Z,15152.00
2022-09-28T08:27:49.700Z,15768.00
2022-09-28T08:28:49.733Z,16528.00
2022-09-28T08:29:49.686Z,17072.00
2022-09-28T08:30:49.761Z,17200.00
2022-09-28T08:31:49.643Z,16908.00
2022-09-28T08:32:49.622Z,16396.00
2022-09-28T08:33:49.687Z,15832.00
2022-09-28T08:34:49.615Z,15304.00
2022-09-28T08:35:49.625Z,14784.00
2022-09-28T08:36:49.608Z,14280.00
2022-09-28T08:37:53.403Z,13800.00
2022-09-28T08:38:50.629Z,13316.00
2022-09-28T08:39:49.570Z,12840.00
2022-09-28T08:40:49.567Z,12348.00
2022-09-28T08:41:49.552Z,11892.00
2022-09-28T08:42:49.540Z,11460.00
2022-09-28T08:43:49.554Z,11088.00
2022-09-28T08:44:49.503Z,10792.00
2022-09-28T08:45:49.499Z,10576.00
2022-09-28T08:46:49.484Z,10452.00
2022-09-28T08:47:49.490Z,10424.00
2022-09-28T08:49:13.027Z,10520.00
2022-09-28T08:49:50.512Z,10720.00
2022-09-28T08:50:49.446Z,11000.00
2022-09-28T08:51:49.424Z,11348.00
2022-09-28T08:52:49.466Z,11768.00
2022-09-28T08:53:49.466Z,12224.00
2022-09-28T08:54:49.391Z,12616.00
2022-09-28T08:55:49.394Z,12856.00
2022-09-28T08:56:49.359Z,12880.00
2022-09-28T08:57:49.354Z,12712.00
2022-09-28T08:58:49.390Z,12576.00
2022-09-28T08:59:49.345Z,12504.00
2022-09-28T09:00:49.369Z,12588.00
2022-09-28T09:01:49.302Z,12804.00
2022-09-28T09:02:49.363Z,13128.00
2022-09-28T09:03:49.321Z,13628.00
2022-09-28T09:04:49.289Z,14352.00
2022-09-28T09:05:49.261Z,15176.00
2022-09-28T09:06:49.253Z,15852.00
2022-09-28T09:07:49.230Z,16116.00
2022-09-28T09:08:49.287Z,15924.00
2022-09-28T09:09:49.222Z,15424.00
2022-09-28T09:10:49.208Z,14964.00
2022-09-28T09:11:49.194Z,14856.00
2022-09-28T09:12:49.231Z,15236.00
2022-09-28T09:13:49.245Z,16088.00
2022-09-28T09:14:49.163Z,16924.00
2022-09-28T09:15:49.176Z,17728.00
2022-09-28T09:16:49.174Z,18112.00
2022-09-28T09:17:49.113Z,17824.00
2022-09-28T09:18:49.208Z,17068.00
2022-09-28T09:19:49.103Z,16508.00
2022-09-28T09:20:49.106Z,16168.00
2022-09-28T09:21:49.079Z,16020.00
2022-09-28T09:22:49.082Z,15864.00
2022-09-28T09:23:49.124Z,15540.00
2022-09-28T09:24:49.047Z,15052.00
2022-09-28T09:25:49.066Z,14592.00
2022-09-28T09:26:49.014Z,14408.00
2022-09-28T09:27:49.030Z,14428.00
2022-09-28T09:28:49.056Z,14696.00
2022-09-28T09:29:49.003Z,15012.00
2022-09-28T09:30:49.024Z,15256.00
2022-09-28T09:31:48.970Z,15444.00
2022-09-28T09:32:48.947Z,15528.00
2022-09-28T09:33:49.000Z,15428.00
2022-09-28T09:34:48.960Z,15208.00
2022-09-28T09:35:48.926Z,14992.00
2022-09-28T09:36:48.913Z,14888.00
2022-09-28T09:37:48.937Z,14864.00
2022-09-28T09:38:48.900Z,14908.00
2022-09-28T09:39:48.928Z,14980.00
2022-09-28T09:40:48.897Z,15012.00
2022-09-28T09:41:48.880Z,14920.00
2022-09-28T09:42:48.840Z,14712.00
2022-09-28T09:43:48.850Z,14380.00
2022-09-28T09:44:48.882Z,14068.00
2022-09-28T09:45:48.865Z,13800.00
2022-09-28T09:46:48.807Z,13648.00
2022-09-28T09:47:48.781Z,13492.00
2022-09-28T09:48:48.804Z,13304.00
2022-09-28T09:49:48.773Z,13064.00
2022-09-28T09:50:48.738Z,12832.00
2022-09-28T09:51:48.762Z,12528.00
2022-09-28T09:52:48.723Z,12208.00
2022-09-28T09:53:48.769Z,12024.00
2022-09-28T09:54:48.698Z,11936.00
2022-09-28T09:55:48.710Z,11740.00
2022-09-28T09:56:48.678Z,11292.00
2022-09-28T09:57:48.708Z,10612.00
2022-09-28T09:58:48.717Z,9972.00
2022-09-28T09:59:48.665Z,9368.00
2022-09-28T10:00:48.662Z,8764.00
2022-09-28T10:01:48.659Z,8048.00
2022-09-28T10:02:48.649Z,7252.00
2022-09-28T10:03:48.684Z,6692.00
2022-09-28T10:04:48.571Z,6692.00
2022-09-28T10:05:48.586Z,6796.00
2022-09-28T10:06:48.588Z,6948.00
2022-09-28T10:07:48.574Z,7060.00
2022-09-28T10:08:48.604Z,7172.00
2022-09-28T10:09:48.545Z,7316.00
2022-09-28T10:10:48.522Z,7592.00
2022-09-28T10:11:48.531Z,7956.00
2022-09-28T10:12:49.659Z,8508.00
2022-09-28T10:13:48.555Z,8756.00
2022-09-28T10:14:48.462Z,8876.00
2022-09-28T10:15:48.459Z,9164.00
2022-09-28T10:16:48.587Z,9056.00
2022-09-28T10:17:48.438Z,8564.00
2022-09-28T10:18:48.480Z,8512.00
2022-09-28T10:19:48.432Z,8192.00
2022-09-28T10:20:48.410Z,7904.00
2022-09-28T10:21:48.411Z,7712.00
2022-09-28T10:22:48.416Z,7500.00
2022-09-28T10:23:48.351Z,7496.00
2022-09-28T10:24:48.426Z,7256.00
2022-09-28T10:25:48.346Z,6740.00
2022-09-28T10:26:48.363Z,6620.00
2022-09-28T10:27:48.333Z,6204.00
2022-09-28T10:28:48.331Z,6096.00
2022-09-28T10:29:48.349Z,6496.00
2022-09-28T10:30:48.357Z,6760.00
2022-09-28T10:31:48.385Z,6612.00
2022-09-28T10:32:48.262Z,6284.00
2022-09-28T10:33:48.245Z,5984.00
2022-09-28T10:34:50.883Z,5840.00
2022-09-28T10:35:48.250Z,5812.00
2022-09-28T10:36:48.233Z,5744.00
2022-09-28T10:37:48.241Z,5628.00
2022-09-28T10:38:48.214Z,5496.00
2022-09-28T10:39:48.224Z,5356.00
2022-09-28T10:40:48.229Z,5220.00
2022-09-28T10:41:48.193Z,5164.00
2022-09-28T10:42:48.158Z,5204.00
2022-09-28T10:43:50.641Z,5384.00
2022-09-28T10:44:48.161Z,5664.00
2022-09-28T10:45:48.171Z,6048.00
2022-09-28T10:46:48.111Z,6528.00
2022-09-28T10:47:48.110Z,7040.00
2022-09-28T10:48:48.101Z,7508.00
2022-09-28T10:49:48.144Z,7948.00
2022-09-28T10:50:48.088Z,8488.00
2022-09-28T10:51:48.068Z,9032.00
2022-09-28T10:52:48.038Z,9524.00
2022-09-28T10:53:48.043Z,9868.00
2022-09-28T10:54:48.086Z,10076.00
2022-09-28T10:55:48.031Z,10232.00
2022-09-28T10:56:47.994Z,10324.00
2022-09-28T10:57:48.007Z,10176.00
2022-09-28T10:58:48.009Z,9776.00
2022-09-28T10:59:48.077Z,9568.00
2022-09-28T11:00:47.977Z,9788.00
2022-09-28T11:01:47.978Z,10044.00
2022-09-28T11:02:47.972Z,10672.00
2022-09-28T11:03:47.923Z,11688.00
2022-09-28T11:04:47.943Z,12408.00
2022-09-28T11:05:47.910Z,12316.00
2022-09-28T11:06:47.942Z,11468.00
2022-09-28T11:07:47.881Z,10416.00
2022-09-28T11:08:47.888Z,9488.00
2022-09-28T11:09:48.756Z,8772.00
2022-09-28T11:10:47.842Z,8208.00
2022-09-28T11:11:47.841Z,7856.00
2022-09-28T11:12:47.825Z,8308.00
2022-09-28T11:13:47.819Z,9076.00
2022-09-28T11:14:47.843Z,9768.00
2022-09-28T11:15:47.774Z,10144.00
2022-09-28T11:16:47.840Z,10336.00
2022-09-28T11:17:47.765Z,10056.00
2022-09-28T11:18:47.765Z,9280.00
2022-09-28T11:19:47.765Z,8756.00
2022-09-28T11:20:47.750Z,9260.00
2022-09-28T11:21:47.722Z,9684.00
2022-09-28T11:22:50.946Z,10136.00
2022-09-28T11:23:47.701Z,10764.00
2022-09-28T11:24:47.738Z,11024.00
2022-09-28T11:25:47.683Z,10632.00
2022-09-28T11:26:47.677Z,10444.00
2022-09-28T11:27:47.683Z,10688.00
2022-09-28T11:28:47.653Z,10700.00
2022-09-28T11:29:47.733Z,10488.00
2022-09-28T11:30:47.688Z,10164.00
2022-09-28T11:31:47.604Z,9896.00
2022-09-28T11:32:47.611Z,9892.00
2022-09-28T11:33:47.579Z,11180.00
2022-09-28T11:34:59.137Z,13308.00
2022-09-28T11:35:48.553Z,14604.00
2022-09-28T11:36:47.558Z,14896.00
2022-09-28T11:37:47.523Z,14540.00
2022-09-28T11:38:47.535Z,13280.00
2022-09-28T11:39:47.577Z,13248.00
2022-09-28T11:40:47.555Z,14364.00
2022-09-28T11:41:47.507Z,15016.00
2022-09-28T11:42:47.484Z,15020.00
2022-09-28T11:43:47.461Z,14996.00
2022-09-28T11:44:47.521Z,14904.00
2022-09-28T11:45:47.485Z,14864.00
2022-09-28T11:46:47.476Z,14872.00
2022-09-28T11:47:47.424Z,15152.00
2022-09-28T11:48:47.455Z,15764.00
2022-09-28T11:49:47.477Z,16680.00
2022-09-28T11:50:47.433Z,17920.00
2022-09-28T11:51:47.372Z,19072.00
2022-09-28T11:52:47.401Z,20320.00
2022-09-28T11:53:47.361Z,21760.00
2022-09-28T11:54:47.406Z,23136.00
2022-09-28T11:55:47.345Z,24384.00
2022-09-28T11:56:47.327Z,25312.00
2022-09-28T11:57:47.374Z,25920.00
2022-09-28T11:58:47.303Z,25856.00
2022-09-28T11:59:47.342Z,25440.00
2022-09-28T12:00:47.291Z,24736.00
2022-09-28T12:01:47.274Z,23744.00
2022-09-28T12:02:47.333Z,22496.00
2022-09-28T12:03:47.271Z,20992.00
2022-09-28T12:04:47.270Z,19520.00
2022-09-28T12:05:47.210Z,18112.00
2022-09-28T12:06:47.219Z,16572.00
2022-09-28T12:07:47.195Z,15336.00
2022-09-28T12:08:47.180Z,14264.00
2022-09-28T12:09:47.204Z,13448.00
2022-09-28T12:10:47.167Z,12948.00
2022-09-28T12:11:47.171Z,12672.00
2022-09-28T12:12:47.159Z,12460.00
2022-09-28T12:13:47.151Z,12256.00
2022-09-28T12:14:47.182Z,12048.00
2022-09-28T12:16:15.034Z,11808.00
2022-09-28T12:17:48.145Z,11032.00
2022-09-28T12:18:47.111Z,10804.00
2022-09-28T12:19:47.105Z,10720.00
2022-09-28T12:20:47.060Z,10576.00
2022-09-28T12:21:47.037Z,10520.00
2022-09-28T12:22:47.019Z,10532.00
2022-09-28T12:23:46.998Z,10464.00
2022-09-28T12:24:47.056Z,10460.00